createdAt,value
2019-02-10T00:00:33.938Z,13.87
2019-02-10T00:03:05.146Z,13.00
2019-02-10T00:05:36.166Z,12.70
2019-02-10T00:08:07.126Z,15.23
2019-02-10T00:10:40.366Z,15.80
2019-02-10T00:13:31.513Z,13.33
2019-02-10T00:16:10.886Z,14.07
2019-02-10T00:18:42.403Z,14.83
2019-02-10T00:21:13.482Z,13.10
2019-02-10T00:23:44.914Z,12.90
2019-02-10T00:26:15.904Z,13.20
2019-02-10T00:28:46.910Z,13.90
2019-02-10T00:31:18.067Z,13.50
2019-02-10T00:33:49.099Z,13.87
2019-02-10T00:36:20.341Z,12.70
2019-02-10T00:38:51.983Z,12.90
2019-02-10T00:41:22.966Z,14.97
2019-02-10T00:43:54.466Z,13.90
2019-02-10T00:46:26.243Z,12.40
2019-02-10T00:48:57.193Z,14.07
2019-02-10T00:51:28.175Z,13.83
2019-02-10T00:53:59.890Z,13.57
2019-02-10T00:56:31.378Z,16.43
2019-02-10T00:59:02.548Z,13.60
2019-02-10T01:01:33.930Z,13.97
2019-02-10T01:04:05.692Z,12.70
2019-02-10T01:06:41.455Z,13.47
2019-02-10T01:09:09.820Z,14.33
2019-02-10T01:11:40.970Z,12.27
2019-02-10T01:14:11.814Z,14.17
2019-02-10T01:16:42.943Z,14.53
2019-02-10T01:19:13.825Z,13.53
2019-02-10T01:21:46.615Z,13.30
2019-02-10T01:24:17.910Z,12.47
2019-02-10T01:26:49.053Z,13.00
2019-02-10T01:29:22.041Z,13.77
2019-02-10T01:31:53.282Z,12.70
2019-02-10T01:34:23.965Z,13.30
2019-02-10T01:36:54.851Z,13.93
2019-02-10T01:39:26.609Z,13.27
2019-02-10T01:41:57.749Z,13.47
2019-02-10T01:44:28.870Z,14.23
2019-02-10T01:47:00.047Z,13.53
2019-02-10T01:49:31.185Z,12.17
2019-02-10T01:52:02.191Z,14.10
2019-02-10T01:54:33.781Z,13.03
2019-02-10T01:57:05.203Z,12.00
2019-02-10T01:59:36.682Z,13.10
2019-02-10T02:02:07.543Z,13.53
2019-02-10T02:04:38.426Z,13.80
2019-02-10T02:07:09.442Z,13.67
2019-02-10T02:09:40.359Z,12.93
2019-02-10T02:12:11.785Z,13.30
2019-02-10T02:14:42.653Z,13.47
2019-02-10T02:17:14.065Z,11.80
2019-02-10T02:19:44.857Z,12.70
2019-02-10T02:22:16.062Z,12.20
2019-02-10T02:24:46.906Z,12.43
2019-02-10T02:27:18.039Z,12.83
2019-02-10T02:29:49.174Z,13.10
2019-02-10T02:32:20.031Z,12.93
2019-02-10T02:34:51.005Z,12.97
2019-02-10T02:37:22.302Z,12.43
2019-02-10T02:39:53.055Z,12.90
2019-02-10T02:42:24.161Z,11.93
2019-02-10T02:44:55.123Z,12.57
2019-02-10T02:47:25.455Z,12.27
2019-02-10T02:49:56.519Z,12.63
2019-02-10T02:52:26.814Z,12.13
2019-02-10T02:54:57.542Z,12.77
2019-02-10T02:57:27.873Z,12.23
2019-02-10T02:59:59.214Z,13.33
2019-02-10T03:02:29.926Z,12.40
2019-02-10T03:05:00.581Z,12.77
2019-02-10T03:07:31.090Z,11.90
2019-02-10T03:10:02.255Z,14.63
2019-02-10T03:12:33.690Z,12.40
2019-02-10T03:15:04.846Z,10.67
2019-02-10T03:17:35.270Z,11.67
2019-02-10T03:20:06.524Z,11.97
2019-02-10T03:22:37.339Z,12.57
2019-02-10T03:25:08.787Z,11.67
2019-02-10T03:27:39.034Z,12.07
2019-02-10T03:30:10.115Z,13.33
2019-02-10T03:32:40.531Z,13.70
2019-02-10T03:35:11.537Z,12.57
2019-02-10T03:37:43.097Z,11.57
2019-02-10T03:40:14.136Z,13.17
2019-02-10T03:42:45.634Z,13.03
2019-02-10T03:45:17.034Z,11.87
2019-02-10T03:47:48.179Z,11.57
2019-02-10T03:50:19.018Z,11.27
2019-02-10T03:52:49.852Z,11.63
2019-02-10T03:55:21.304Z,11.77
2019-02-10T03:57:52.171Z,11.77
2019-02-10T04:00:23.098Z,11.33
2019-02-10T04:02:54.732Z,11.63
2019-02-10T04:05:25.888Z,10.83
2019-02-10T04:07:57.196Z,11.80
2019-02-10T04:10:28.198Z,10.93
2019-02-10T04:12:59.617Z,12.97
2019-02-10T04:15:31.070Z,11.73
2019-02-10T04:18:02.234Z,11.40
2019-02-10T04:20:33.982Z,11.20
2019-02-10T04:23:05.114Z,12.50
2019-02-10T04:25:36.586Z,12.67
2019-02-10T04:28:07.735Z,11.23
2019-02-10T04:30:38.850Z,11.20
2019-02-10T04:33:10.316Z,12.30
2019-02-10T04:35:41.133Z,11.20
2019-02-10T04:38:12.594Z,10.87
2019-02-10T04:40:43.422Z,9.90
2019-02-10T04:43:14.569Z,11.07
2019-02-10T04:45:46.295Z,10.27
2019-02-10T04:48:17.557Z,10.93
2019-02-10T04:50:48.927Z,11.43
2019-02-10T04:53:20.071Z,9.87
2019-02-10T04:56:16.106Z,11.27
2019-02-10T04:58:46.858Z,12.23
2019-02-10T05:01:18.071Z,11.60
2019-02-10T05:03:49.215Z,10.30
2019-02-10T05:06:21.257Z,10.10
2019-02-10T05:08:52.130Z,11.37
2019-02-10T05:11:22.526Z,10.80
2019-02-10T05:13:53.176Z,10.10
2019-02-10T05:16:23.506Z,10.30
2019-02-10T05:18:53.926Z,10.30
2019-02-10T05:21:24.121Z,10.20
2019-02-10T05:24:02.988Z,9.90
2019-02-10T05:26:27.166Z,11.43
2019-02-10T05:28:59.017Z,12.73
2019-02-10T05:31:30.378Z,10.43
2019-02-10T05:34:01.979Z,10.17
2019-02-10T05:36:33.158Z,10.90
2019-02-10T05:39:04.833Z,10.63
2019-02-10T05:41:35.902Z,11.47
2019-02-10T05:44:06.590Z,10.63
2019-02-10T05:46:38.037Z,9.27
2019-02-10T05:49:09.184Z,11.23
2019-02-10T05:51:39.821Z,10.40
2019-02-10T05:54:10.214Z,11.00
2019-02-10T05:56:40.527Z,10.27
2019-02-10T05:59:11.302Z,10.13
2019-02-10T06:02:03.377Z,10.90
2019-02-10T06:04:37.251Z,10.80
2019-02-10T06:07:11.137Z,9.57
2019-02-10T06:09:41.990Z,10.33
2019-02-10T06:12:12.391Z,8.83
2019-02-10T06:14:43.522Z,9.20
2019-02-10T06:17:14.089Z,10.00
2019-02-10T06:19:45.028Z,9.53
2019-02-10T06:22:15.454Z,11.30
2019-02-10T06:24:46.428Z,11.53
2019-02-10T06:27:16.673Z,9.17
2019-02-10T06:29:47.488Z,9.13
2019-02-10T06:32:17.721Z,9.43
2019-02-10T06:34:51.155Z,9.30
2019-02-10T06:37:22.766Z,10.13
2019-02-10T06:39:53.813Z,9.10
2019-02-10T06:42:25.621Z,10.47
2019-02-10T06:44:56.465Z,9.93
2019-02-10T06:47:27.303Z,8.73
2019-02-10T06:49:59.166Z,9.03
2019-02-10T06:52:33.329Z,10.20
2019-02-10T06:55:04.846Z,8.87
2019-02-10T06:57:36.003Z,8.77
2019-02-10T07:00:43.065Z,9.10
2019-02-10T07:03:55.368Z,9.40
2019-02-10T07:06:26.817Z,10.03
2019-02-10T07:08:57.958Z,9.87
2019-02-10T07:11:28.913Z,8.57
2019-02-10T07:14:05.976Z,8.90
2019-02-10T07:17:00.309Z,8.50
2019-02-10T07:20:15.177Z,9.37
2019-02-10T07:23:27.442Z,9.20
2019-02-10T07:26:06.518Z,10.47
2019-02-10T07:28:47.077Z,8.80
2019-02-10T07:31:31.564Z,9.03
2019-02-10T07:34:23.915Z,9.20
2019-02-10T07:37:22.491Z,9.30
2019-02-10T07:40:06.674Z,9.10
2019-02-10T07:42:49.602Z,9.13
2019-02-10T07:45:46.870Z,9.30
2019-02-10T07:48:27.812Z,8.27
2019-02-10T07:52:01.029Z,9.60
2019-02-10T07:55:15.154Z,8.90
2019-02-10T07:58:15.522Z,9.90
2019-02-10T08:01:02.994Z,8.20
2019-02-10T08:04:03.392Z,8.33
2019-02-10T08:06:59.658Z,8.77
2019-02-10T08:09:58.585Z,8.83
2019-02-10T08:13:13.209Z,9.47
2019-02-10T08:16:29.097Z,8.73
2019-02-10T08:19:46.996Z,8.90
2019-02-10T08:22:45.091Z,9.70
2019-02-10T08:25:55.540Z,8.63
2019-02-10T08:29:05.157Z,9.03
2019-02-10T08:32:11.293Z,9.20
2019-02-10T08:35:27.376Z,8.00
2019-02-10T08:38:42.384Z,9.33
2019-02-10T08:41:55.522Z,9.90
2019-02-10T08:44:53.963Z,7.67
2019-02-10T08:48:08.958Z,7.93
2019-02-10T08:51:27.486Z,8.10
2019-02-10T08:53:59.467Z,7.63
2019-02-10T08:56:29.850Z,9.03
2019-02-10T08:59:00.927Z,8.47
2019-02-10T09:01:31.182Z,8.43
2019-02-10T09:04:02.196Z,9.13
2019-02-10T09:06:32.505Z,8.47
2019-02-10T09:09:02.949Z,8.20
2019-02-10T09:11:35.020Z,9.80
2019-02-10T09:14:05.624Z,9.23
2019-02-10T09:16:35.942Z,10.93
2019-02-10T09:19:06.600Z,9.57
2019-02-10T09:21:36.900Z,8.10
2019-02-10T09:24:07.170Z,8.70
2019-02-10T09:26:37.795Z,9.20
2019-02-10T09:29:08.282Z,9.43
2019-02-10T09:31:38.671Z,7.17
2019-02-10T09:34:10.624Z,9.80
2019-02-10T09:36:41.013Z,7.93
2019-02-10T09:39:18.054Z,8.23
2019-02-10T09:41:49.791Z,8.77
2019-02-10T09:44:20.433Z,7.93
2019-02-10T09:46:50.913Z,8.60
2019-02-10T09:49:21.642Z,9.70
2019-02-10T09:51:52.477Z,7.60
2019-02-10T09:54:23.670Z,8.47
2019-02-10T09:56:54.601Z,8.23
2019-02-10T09:59:25.350Z,8.73
2019-02-10T10:01:55.714Z,9.77
2019-02-10T10:04:26.812Z,10.57
2019-02-10T10:06:57.547Z,8.63
2019-02-10T10:09:28.075Z,8.80
2019-02-10T10:11:58.483Z,7.60
2019-02-10T10:14:30.783Z,11.67
2019-02-10T10:17:02.085Z,8.63
2019-02-10T10:19:32.664Z,9.33
2019-02-10T10:22:03.478Z,8.20
2019-02-10T10:24:33.905Z,10.17
2019-02-10T10:27:04.866Z,9.97
2019-02-10T10:29:36.907Z,9.27
2019-02-10T10:32:08.059Z,9.17
2019-02-10T10:34:38.446Z,9.67
2019-02-10T10:37:09.138Z,10.60
2019-02-10T10:39:39.655Z,8.43
2019-02-10T10:42:10.591Z,10.63
2019-02-10T10:44:40.990Z,9.27
2019-02-10T10:47:11.949Z,10.37
2019-02-10T10:49:44.025Z,8.30
2019-02-10T10:52:15.471Z,10.90
2019-02-10T10:54:46.633Z,9.33
2019-02-10T10:57:17.774Z,8.67
2019-02-10T10:59:48.774Z,12.33
2019-02-10T11:02:19.730Z,10.53
2019-02-10T11:04:51.207Z,11.00
2019-02-10T11:07:22.330Z,10.10
2019-02-10T11:09:53.765Z,11.00
2019-02-10T11:12:24.658Z,8.83
2019-02-10T11:14:55.550Z,8.33
2019-02-10T11:17:29.189Z,9.00
2019-02-10T11:20:04.939Z,13.43
2019-02-10T11:22:35.290Z,16.03
2019-02-10T11:25:06.327Z,13.63
2019-02-10T11:27:37.013Z,13.17
2019-02-10T11:30:08.933Z,18.00
2019-02-10T11:32:39.295Z,12.17
2019-02-10T11:35:10.855Z,12.53
2019-02-10T11:37:41.554Z,15.27
2019-02-10T11:40:12.546Z,10.07
2019-02-10T11:42:43.026Z,12.70
2019-02-10T11:45:13.920Z,11.57
2019-02-10T11:47:44.299Z,13.90
2019-02-10T11:50:16.606Z,11.67
2019-02-10T11:52:48.082Z,18.43
2019-02-10T11:55:18.802Z,13.73
2019-02-10T11:57:50.049Z,18.03
2019-02-10T12:00:21.165Z,13.23
2019-02-10T12:02:52.435Z,16.90
2019-02-10T12:05:23.529Z,23.97
2019-02-10T12:07:54.525Z,14.33
2019-02-10T12:10:26.714Z,12.60
2019-02-10T12:12:57.508Z,11.97
2019-02-10T12:15:28.664Z,20.27
2019-02-10T12:17:59.822Z,16.20
2019-02-10T12:20:31.247Z,21.43
2019-02-10T12:23:02.717Z,12.47
2019-02-10T12:25:33.830Z,18.53
2019-02-10T12:28:04.991Z,15.53
2019-02-10T12:30:36.172Z,15.43
2019-02-10T12:33:07.282Z,16.87
2019-02-10T12:35:38.528Z,12.43
2019-02-10T12:38:09.854Z,11.47
2019-02-10T12:40:40.835Z,17.60
2019-02-10T12:43:11.840Z,10.97
2019-02-10T12:45:42.673Z,10.47
2019-02-10T12:48:13.094Z,12.67
2019-02-10T12:50:43.788Z,13.70
2019-02-10T12:53:15.425Z,10.93
2019-02-10T12:55:46.629Z,9.33
2019-02-10T12:58:17.814Z,17.57
2019-02-10T13:00:49.445Z,11.10
2019-02-10T13:03:20.434Z,13.97
2019-02-10T13:05:51.586Z,10.27
2019-02-10T13:08:22.653Z,14.30
2019-02-10T13:10:53.793Z,11.10
2019-02-10T13:13:24.938Z,12.37
2019-02-10T13:15:56.098Z,12.00
2019-02-10T13:18:26.922Z,9.93
2019-02-10T13:20:57.874Z,11.13
2019-02-10T13:23:28.897Z,13.50
2019-02-10T13:26:00.349Z,18.07
2019-02-10T13:28:31.490Z,12.57
2019-02-10T13:31:02.641Z,12.47
2019-02-10T13:33:34.095Z,16.00
2019-02-10T13:36:05.434Z,13.67
2019-02-10T13:38:36.501Z,13.93
2019-02-10T13:41:07.555Z,12.27
2019-02-10T13:43:38.990Z,14.80
2019-02-10T13:46:09.810Z,13.67
2019-02-10T13:48:40.895Z,11.17
2019-02-10T13:51:11.731Z,17.70
2019-02-10T13:53:42.817Z,14.33
2019-02-10T13:56:13.947Z,12.87
2019-02-10T13:58:44.786Z,12.50
2019-02-10T14:01:15.931Z,13.63
2019-02-10T14:03:47.379Z,13.17
2019-02-10T14:06:18.450Z,11.93
2019-02-10T14:08:49.358Z,13.87
2019-02-10T14:11:20.334Z,15.93
2019-02-10T14:13:51.788Z,11.13
2019-02-10T14:16:23.287Z,12.57
2019-02-10T14:18:54.929Z,11.93
2019-02-10T14:21:26.498Z,10.30
2019-02-10T14:23:57.450Z,15.87
2019-02-10T14:26:28.233Z,13.27
2019-02-10T14:28:59.425Z,13.53
2019-02-10T14:31:30.569Z,10.77
2019-02-10T14:34:01.417Z,10.43
2019-02-10T14:36:32.558Z,13.53
2019-02-10T14:39:04.743Z,12.77
2019-02-10T14:41:35.963Z,11.60
2019-02-10T14:44:06.970Z,13.20
2019-02-10T14:46:38.361Z,13.00
2019-02-10T14:49:09.976Z,12.37
2019-02-10T14:51:41.871Z,10.97
2019-02-10T14:54:13.126Z,11.20
2019-02-10T14:56:44.167Z,12.77
2019-02-10T14:59:15.318Z,12.10
2019-02-10T15:01:46.930Z,12.33
2019-02-10T15:04:17.901Z,10.60
2019-02-10T15:06:49.044Z,9.50
2019-02-10T15:09:20.030Z,9.67
2019-02-10T15:11:51.668Z,10.67
2019-02-10T15:14:23.002Z,13.80
2019-02-10T15:16:53.822Z,10.97
2019-02-10T15:19:24.779Z,10.50
2019-02-10T15:21:55.470Z,12.90
2019-02-10T15:24:26.431Z,13.83
2019-02-10T15:26:56.954Z,10.73
2019-02-10T15:29:27.832Z,12.03
2019-02-10T15:31:58.328Z,10.63
2019-02-10T15:34:29.280Z,13.10
2019-02-10T15:36:59.673Z,10.47
2019-02-10T15:39:31.446Z,11.47
2019-02-10T15:42:09.239Z,12.70
2019-02-10T15:44:34.870Z,15.93
2019-02-10T15:47:06.519Z,10.43
2019-02-10T15:49:37.348Z,11.13
2019-02-10T15:52:08.069Z,13.97
2019-02-10T15:54:38.584Z,13.60
2019-02-10T15:57:09.449Z,12.00
2019-02-10T15:59:40.821Z,12.13
2019-02-10T16:02:11.947Z,11.63
2019-02-10T16:04:43.383Z,11.33
2019-02-10T16:07:14.894Z,14.07
2019-02-10T16:09:46.605Z,11.30
2019-02-10T16:12:17.898Z,11.27
2019-02-10T16:14:49.205Z,10.90
2019-02-10T16:17:20.401Z,10.13
2019-02-10T16:19:51.500Z,12.13
2019-02-10T16:22:22.855Z,11.53
2019-02-10T16:24:53.798Z,10.50
2019-02-10T16:27:24.870Z,10.63
2019-02-10T16:29:55.758Z,11.60
2019-02-10T16:32:26.967Z,11.37
2019-02-10T16:34:57.738Z,10.57
2019-02-10T16:37:28.895Z,10.87
2019-02-10T16:40:00.029Z,11.50
2019-02-10T16:42:30.861Z,12.23
2019-02-10T16:45:02.317Z,9.60
2019-02-10T16:47:33.342Z,10.23
2019-02-10T16:50:04.349Z,9.17
2019-02-10T16:52:36.387Z,13.43
2019-02-10T16:55:09.203Z,11.10
2019-02-10T16:57:40.262Z,11.60
2019-02-10T17:00:12.829Z,11.10
2019-02-10T17:02:43.734Z,11.93
2019-02-10T17:05:14.801Z,10.03
2019-02-10T17:07:46.010Z,12.63
2019-02-10T17:10:17.462Z,12.33
2019-02-10T17:12:48.920Z,15.27
2019-02-10T17:15:21.357Z,11.30
2019-02-10T17:17:52.107Z,12.03
2019-02-10T17:20:23.380Z,11.77
2019-02-10T17:22:55.041Z,12.10
2019-02-10T17:25:26.684Z,11.93
2019-02-10T17:27:57.854Z,11.13
2019-02-10T17:30:29.201Z,11.57
2019-02-10T17:33:00.336Z,14.40
2019-02-10T17:35:31.781Z,13.30
2019-02-10T17:38:02.909Z,11.67
2019-02-10T17:40:37.717Z,13.90
2019-02-10T17:43:08.855Z,13.40
2019-02-10T17:45:39.729Z,13.27
2019-02-10T17:48:10.869Z,11.93
2019-02-10T17:50:42.320Z,12.27
2019-02-10T17:53:13.399Z,12.87
2019-02-10T17:55:46.099Z,12.20
2019-02-10T17:58:18.219Z,12.73
2019-02-10T18:00:50.883Z,14.23
2019-02-10T18:03:21.734Z,13.00
2019-02-10T18:05:54.110Z,13.43
2019-02-10T18:08:24.939Z,13.17
2019-02-10T18:10:56.282Z,14.80
2019-02-10T18:13:28.303Z,13.83
2019-02-10T18:16:18.985Z,15.83
2019-02-10T18:19:14.369Z,13.47
2019-02-10T18:21:50.675Z,13.37
2019-02-10T18:24:46.134Z,13.93
2019-02-10T18:27:41.602Z,14.17
2019-02-10T18:30:34.806Z,13.60
2019-02-10T18:33:24.157Z,14.33
2019-02-10T18:36:14.271Z,14.33
2019-02-10T18:39:06.360Z,13.40
2019-02-10T18:41:46.042Z,15.20
2019-02-10T18:44:38.415Z,12.63
2019-02-10T18:47:18.967Z,12.97
2019-02-10T18:50:11.939Z,14.63
2019-02-10T18:53:16.882Z,14.67
2019-02-10T18:55:56.647Z,15.43
2019-02-10T18:58:32.455Z,14.77
2019-02-10T19:01:34.854Z,16.90
2019-02-10T19:04:42.504Z,13.77
2019-02-10T19:07:23.346Z,16.17
2019-02-10T19:10:13.181Z,14.33
2019-02-10T19:13:02.515Z,14.67
2019-02-10T19:15:45.590Z,15.80
2019-02-10T19:18:44.124Z,15.53
2019-02-10T19:21:20.417Z,14.63
2019-02-10T19:24:06.374Z,14.70
2019-02-10T19:26:47.911Z,13.03
2019-02-10T19:29:35.679Z,14.00
2019-02-10T19:32:16.206Z,14.10
2019-02-10T19:34:56.506Z,15.23
2019-02-10T19:37:52.886Z,14.07
2019-02-10T19:40:41.090Z,14.67
2019-02-10T19:43:30.207Z,15.03
2019-02-10T19:46:18.322Z,14.90
2019-02-10T19:49:09.268Z,17.07
2019-02-10T19:51:57.859Z,15.20
2019-02-10T19:54:47.247Z,18.83
2019-02-10T19:57:28.169Z,18.00
2019-02-10T20:00:16.875Z,16.57
2019-02-10T20:03:15.572Z,16.60
2019-02-10T20:06:07.991Z,15.00
2019-02-10T20:09:06.754Z,15.63
2019-02-10T20:12:03.939Z,14.50
2019-02-10T20:14:35.760Z,18.37
2019-02-10T20:17:25.463Z,17.03
2019-02-10T20:20:17.994Z,16.13
2019-02-10T20:23:07.291Z,18.00
2019-02-10T20:25:57.479Z,16.17
2019-02-10T20:28:55.878Z,16.07
2019-02-10T20:31:44.280Z,18.10
2019-02-10T20:34:22.560Z,19.40
2019-02-10T20:37:05.907Z,18.63
2019-02-10T20:39:58.883Z,18.67
2019-02-10T20:42:51.981Z,17.27
2019-02-10T20:45:41.307Z,17.13
2019-02-10T20:48:20.220Z,17.33
2019-02-10T20:51:09.994Z,16.70
2019-02-10T20:54:01.429Z,18.97
2019-02-10T20:56:47.417Z,18.33
2019-02-10T20:59:43.723Z,20.03
2019-02-10T21:02:33.147Z,19.47
2019-02-10T21:05:10.931Z,17.67
2019-02-10T21:08:00.130Z,17.50
2019-02-10T21:10:47.910Z,19.37
2019-02-10T21:13:27.488Z,19.47
2019-02-10T21:16:06.746Z,18.90
2019-02-10T21:18:46.087Z,21.57
2019-02-10T21:21:27.699Z,17.90
2019-02-10T21:24:14.430Z,21.97
2019-02-10T21:27:11.292Z,18.77
2019-02-10T21:29:57.396Z,20.80
2019-02-10T21:32:47.062Z,22.47
2019-02-10T21:35:37.258Z,20.03
2019-02-10T21:38:26.897Z,18.97
2019-02-10T21:41:10.667Z,19.80
2019-02-10T21:43:49.635Z,18.80
2019-02-10T21:46:52.360Z,18.27
2019-02-10T21:49:26.162Z,21.63
2019-02-10T21:51:57.131Z,18.57
2019-02-10T21:54:28.577Z,20.50
2019-02-10T21:57:01.008Z,20.10
2019-02-10T21:59:33.400Z,21.13
2019-02-10T22:02:05.073Z,20.80
2019-02-10T22:04:36.367Z,17.23
2019-02-10T22:07:08.367Z,18.00
2019-02-10T22:09:39.652Z,19.73
2019-02-10T22:12:11.330Z,21.17
2019-02-10T22:14:42.505Z,19.67
2019-02-10T22:17:14.184Z,20.57
2019-02-10T22:19:45.646Z,19.10
2019-02-10T22:22:16.677Z,19.03
2019-02-10T22:24:47.620Z,19.37
2019-02-10T22:27:18.929Z,19.57
2019-02-10T22:29:49.945Z,18.43
2019-02-10T22:32:20.756Z,18.87
2019-02-10T22:34:53.445Z,18.10
2019-02-10T22:37:24.685Z,20.87
2019-02-10T22:39:56.121Z,20.83
2019-02-10T22:42:29.216Z,23.63
2019-02-10T22:45:01.666Z,19.20
2019-02-10T22:47:32.742Z,20.60
2019-02-10T22:50:05.486Z,18.37
2019-02-10T22:52:36.202Z,19.47
2019-02-10T22:55:07.437Z,20.23
2019-02-10T22:57:41.050Z,21.77
2019-02-10T23:00:47.150Z,19.00
2019-02-10T23:03:18.916Z,19.17
2019-02-10T23:05:50.989Z,19.70
2019-02-10T23:08:22.157Z,19.13
2019-02-10T23:10:53.271Z,19.27
2019-02-10T23:13:24.014Z,18.83
2019-02-10T23:15:55.237Z,18.60
2019-02-10T23:18:25.582Z,20.00
2019-02-10T23:20:56.300Z,18.40
2019-02-10T23:23:26.721Z,19.10
2019-02-10T23:25:57.355Z,20.10
2019-02-10T23:28:28.985Z,17.50
2019-02-10T23:30:59.673Z,17.97
2019-02-10T23:33:29.930Z,20.73
2019-02-10T23:36:01.026Z,20.47
2019-02-10T23:38:31.430Z,17.80
2019-02-10T23:41:02.378Z,19.43
2019-02-10T23:43:32.731Z,19.87
2019-02-10T23:46:04.062Z,20.33
2019-02-10T23:48:34.748Z,20.73
2019-02-10T23:51:05.420Z,20.07
2019-02-10T23:53:35.819Z,18.60
2019-02-10T23:56:06.818Z,20.00
2019-02-10T23:58:37.931Z,20.10
